createdAt,value
2024-04-18T00:01:20.068Z,99243.16
2024-04-18T00:04:23.068Z,99244.22
2024-04-18T00:07:25.880Z,99235.09
2024-04-18T00:10:55.931Z,99242.13
2024-04-18T00:14:24.537Z,99244.63
2024-04-18T00:17:47.229Z,99246.22
2024-04-18T00:20:58.551Z,99244.47
2024-04-18T00:24:01.202Z,99238.50
2024-04-18T00:27:22.623Z,99240.84
2024-04-18T00:30:26.164Z,99239.59
2024-04-18T00:33:29.101Z,99237.91
2024-04-18T00:36:33.638Z,99240.47
2024-04-18T00:39:56.285Z,99242.19
2024-04-18T00:43:14.111Z,99242.88
2024-04-18T00:46:17.005Z,99248.81
2024-04-18T00:49:32.761Z,99242.59
2024-04-18T00:52:35.358Z,99246.97
2024-04-18T00:55:41.169Z,99248.84
2024-04-18T00:58:51.436Z,99255.41
2024-04-18T01:01:57.043Z,99251.63
2024-04-18T01:05:19.948Z,99243.69
2024-04-18T01:08:23.131Z,99248.03
2024-04-18T01:11:32.844Z,99246.66
2024-04-18T01:14:35.670Z,99243.41
2024-04-18T01:17:39.132Z,99239.97
2024-04-18T01:20:41.764Z,99236.19
2024-04-18T01:23:45.944Z,99237.28
2024-04-18T01:26:48.535Z,99240.72
2024-04-18T01:29:51.127Z,99236.38
2024-04-18T01:33:12.661Z,99240.59
2024-04-18T01:36:15.449Z,99231.66
2024-04-18T01:39:26.439Z,99245.88
2024-04-18T01:42:39.468Z,99244.91
2024-04-18T01:45:59.431Z,99245.91
2024-04-18T01:49:02.112Z,99246.84
2024-04-18T01:52:23.200Z,99246.31
2024-04-18T01:55:25.891Z,99259.56
2024-04-18T01:58:44.425Z,99260.34
2024-04-18T02:01:47.090Z,99249.59
2024-04-18T02:04:49.832Z,99259.31
2024-04-18T02:08:12.434Z,99255.72
2024-04-18T02:11:20.508Z,99249.63
2024-04-18T02:14:42.305Z,99257.59
2024-04-18T02:17:45.033Z,99262.09
2024-04-18T02:20:47.657Z,99259.00
2024-04-18T02:23:56.486Z,99262.28
2024-04-18T02:26:59.257Z,99258.28
2024-04-18T02:30:05.392Z,99262.13
2024-04-18T02:33:16.365Z,99264.34
2024-04-18T02:36:22.301Z,99271.50
2024-04-18T02:39:25.047Z,99269.66
2024-04-18T02:42:27.906Z,99274.94
2024-04-18T02:45:33.813Z,99269.19
2024-04-18T02:48:55.402Z,99272.59
2024-04-18T02:52:01.001Z,99271.34
2024-04-18T02:55:22.599Z,99272.44
2024-04-18T02:58:31.309Z,99272.78
2024-04-18T03:01:52.412Z,99268.53
2024-04-18T03:04:55.022Z,99272.75
2024-04-18T03:08:00.179Z,99270.88
2024-04-18T03:11:20.734Z,99277.56
2024-04-18T03:14:43.345Z,99276.47
2024-04-18T03:17:48.776Z,99267.00
2024-04-18T03:21:10.872Z,99272.72
2024-04-18T03:24:22.596Z,99267.44
2024-04-18T03:27:25.370Z,99265.22
2024-04-18T03:30:28.006Z,99277.09
2024-04-18T03:33:43.733Z,99279.13
2024-04-18T03:36:49.371Z,99277.88
2024-04-18T03:40:05.800Z,99274.72
2024-04-18T03:43:08.463Z,99278.94
2024-04-18T03:46:11.139Z,99277.06
2024-04-18T03:49:33.946Z,99285.19
2024-04-18T03:52:36.571Z,99273.50
2024-04-18T03:55:59.428Z,99275.81
2024-04-18T03:59:02.132Z,99277.69
2024-04-18T04:02:04.820Z,99285.63
2024-04-18T04:05:07.519Z,99291.72
2024-04-18T04:08:10.728Z,99293.47
2024-04-18T04:11:19.865Z,99293.75
2024-04-18T04:14:22.654Z,99312.72
2024-04-18T04:17:28.603Z,99313.88
2024-04-18T04:20:42.607Z,99313.53
2024-04-18T04:23:45.279Z,99319.47
2024-04-18T04:26:47.978Z,99326.00
2024-04-18T04:29:50.624Z,99326.81
2024-04-18T04:32:53.277Z,99333.81
2024-04-18T04:36:08.144Z,99332.91
2024-04-18T04:39:11.142Z,99323.38
2024-04-18T04:42:18.864Z,99332.59
2024-04-18T04:45:21.451Z,99338.97
2024-04-18T04:48:40.526Z,99336.00
2024-04-18T04:51:46.209Z,99347.22
2024-04-18T04:55:08.990Z,99348.16
2024-04-18T04:58:11.610Z,99345.38
2024-04-18T05:01:14.183Z,99350.03
2024-04-18T05:04:16.875Z,99341.78
2024-04-18T05:07:19.739Z,99350.50
2024-04-18T05:10:22.405Z,99353.47
2024-04-18T05:13:25.018Z,99357.66
2024-04-18T05:16:47.694Z,99365.47
2024-04-18T05:19:50.473Z,99364.06
2024-04-18T05:23:11.628Z,99374.50
2024-04-18T05:26:14.304Z,99375.41
2024-04-18T05:29:38.701Z,99370.22
2024-04-18T05:32:41.286Z,99379.06
2024-04-18T05:35:46.803Z,99369.34
2024-04-18T05:38:49.628Z,99373.44
2024-04-18T05:41:52.607Z,99368.31
2024-04-18T05:45:08.085Z,99376.72
2024-04-18T05:48:32.035Z,99375.28
2024-04-18T05:51:37.874Z,99370.84
2024-04-18T05:54:59.493Z,99376.63
2024-04-18T05:58:16.753Z,99372.94
2024-04-18T06:01:32.726Z,99378.03
2024-04-18T06:04:36.093Z,99381.50
2024-04-18T06:07:58.912Z,99376.56
2024-04-18T06:11:02.130Z,99374.50
2024-04-18T06:14:06.085Z,99376.97
2024-04-18T06:17:09.062Z,99380.69
2024-04-18T06:20:26.954Z,99384.97
2024-04-18T06:23:29.583Z,99379.91
2024-04-18T06:26:51.084Z,99382.84
2024-04-18T06:29:56.269Z,99381.09
2024-04-18T06:32:59.438Z,99388.00
2024-04-18T06:36:03.437Z,99392.84
2024-04-18T06:39:08.831Z,99400.09
2024-04-18T06:42:11.534Z,99401.31
2024-04-18T06:45:16.759Z,99392.97
2024-04-18T06:48:19.942Z,99398.56
2024-04-18T06:51:22.731Z,99396.72
2024-04-18T06:54:25.989Z,99396.53
2024-04-18T06:57:29.557Z,99397.28
2024-04-18T07:00:32.752Z,99404.81
2024-04-18T07:03:37.984Z,99399.56
2024-04-18T07:07:01.562Z,99397.91
2024-04-18T07:10:15.877Z,99407.38
2024-04-18T07:13:33.396Z,99409.28
2024-04-18T07:16:57.472Z,99417.97
2024-04-18T07:20:06.775Z,99421.66
2024-04-18T07:23:09.946Z,99419.09
2024-04-18T07:26:12.773Z,99415.16
2024-04-18T07:29:16.419Z,99417.41
2024-04-18T07:32:19.287Z,99433.31
2024-04-18T07:35:24.647Z,99435.56
2024-04-18T07:38:28.442Z,99424.53
2024-04-18T07:41:31.299Z,99431.34
2024-04-18T07:44:35.257Z,99439.25
2024-04-18T07:47:39.609Z,99432.31
2024-04-18T07:50:42.458Z,99426.38
2024-04-18T07:53:45.207Z,99433.25
2024-04-18T07:56:48.202Z,99440.63
2024-04-18T07:59:53.102Z,99440.31
2024-04-18T08:02:59.605Z,99441.09
2024-04-18T08:06:05.431Z,99430.75
2024-04-18T08:09:13.357Z,99440.13
2024-04-18T08:12:25.888Z,99436.97
2024-04-18T08:18:48.462Z,99449.50
2024-04-18T08:21:51.395Z,99446.41
2024-04-18T08:24:56.548Z,99449.84
2024-04-18T08:27:59.388Z,99452.09
2024-04-18T08:31:02.104Z,99442.91
2024-04-18T08:34:11.641Z,99449.38
2024-04-18T08:37:20.492Z,99454.56
2024-04-18T08:40:23.569Z,99452.69
2024-04-18T08:43:26.253Z,99451.25
2024-04-18T08:46:32.820Z,99449.13
2024-04-18T08:49:39.532Z,99446.84
2024-04-18T08:52:45.830Z,99446.63
2024-04-18T08:55:52.191Z,99449.56
2024-04-18T08:58:54.905Z,99454.34
2024-04-18T09:01:58.171Z,99450.38
2024-04-18T09:05:00.872Z,99453.09
2024-04-18T09:08:05.390Z,99456.94
2024-04-18T09:11:08.663Z,99460.03
2024-04-18T09:14:11.937Z,99465.03
2024-04-18T09:17:15.464Z,99462.38
2024-04-18T09:20:18.338Z,99456.16
2024-04-18T09:23:22.502Z,99461.19
2024-04-18T09:26:30.912Z,99463.88
2024-04-18T09:29:33.561Z,99457.56
2024-04-18T09:32:37.365Z,99463.09
2024-04-18T09:35:43.802Z,99460.59
2024-04-18T09:38:51.119Z,99471.53
2024-04-18T09:42:02.275Z,99462.41
2024-04-18T09:45:05.644Z,99453.88
2024-04-18T09:48:11.433Z,99459.84
2024-04-18T09:51:16.291Z,99451.91
2024-04-18T09:54:20.185Z,99465.81
2024-04-18T09:57:24.545Z,99463.50
2024-04-18T10:00:28.820Z,99465.34
2024-04-18T10:03:32.227Z,99466.97
2024-04-18T10:06:39.868Z,99466.06
2024-04-18T10:09:45.236Z,99459.09
2024-04-18T10:12:49.015Z,99465.22
2024-04-18T10:15:52.382Z,99471.16
2024-04-18T10:19:27.584Z,99468.06
2024-04-18T10:22:55.758Z,99466.91
2024-04-18T10:26:00.181Z,99461.41
2024-04-18T10:29:03.183Z,99457.63
2024-04-18T10:32:06.401Z,99463.88
2024-04-18T10:35:09.929Z,99465.44
2024-04-18T10:38:24.078Z,99464.41
2024-04-18T10:41:26.955Z,99473.25
2024-04-18T10:44:30.927Z,99477.78
2024-04-18T10:47:38.005Z,99483.16
2024-04-18T10:50:42.048Z,99481.22
2024-04-18T10:53:45.109Z,99482.25
2024-04-18T10:56:47.915Z,99469.75
2024-04-18T10:59:50.699Z,99470.38
2024-04-18T11:02:57.510Z,99478.25
2024-04-18T11:06:04.419Z,99481.66
2024-04-18T11:09:07.288Z,99488.38
2024-04-18T11:12:10.924Z,99482.78
2024-04-18T11:15:18.582Z,99484.44
2024-04-18T11:18:23.254Z,99488.38
2024-04-18T11:21:26.283Z,99490.31
2024-04-18T11:24:30.558Z,99478.81
2024-04-18T11:27:36.918Z,99479.56
2024-04-18T11:30:44.376Z,99486.72
2024-04-18T11:33:49.622Z,99488.31
2024-04-18T11:36:58.525Z,99492.44
2024-04-18T11:40:01.787Z,99496.19
2024-04-18T11:43:05.078Z,99501.69
2024-04-18T11:46:07.847Z,99500.53
2024-04-18T11:49:10.752Z,99498.47
2024-04-18T11:52:13.864Z,99487.78
2024-04-18T11:55:31.605Z,99501.19
2024-04-18T11:58:58.612Z,99504.53
2024-04-18T12:02:07.785Z,99499.69
2024-04-18T12:05:27.454Z,99498.59
2024-04-18T12:08:30.688Z,99500.31
2024-04-18T12:11:33.815Z,99496.72
2024-04-18T12:14:50.129Z,99497.00
2024-04-18T12:18:03.490Z,99499.44
2024-04-18T12:21:23.955Z,99493.44
2024-04-18T12:24:26.887Z,99505.78
2024-04-18T12:27:43.633Z,99505.84
2024-04-18T12:31:05.147Z,99511.91
2024-04-18T12:34:07.970Z,99518.34
2024-04-18T12:37:10.787Z,99518.09
2024-04-18T12:40:14.411Z,99510.69
2024-04-18T12:43:37.227Z,99517.72
2024-04-18T12:47:00.698Z,99510.25
2024-04-18T12:50:20.925Z,99515.66
2024-04-18T12:53:27.632Z,99503.13
2024-04-18T12:56:33.576Z,99514.69
2024-04-18T12:59:56.152Z,99501.81
2024-04-18T13:03:02.068Z,99513.16
2024-04-18T13:06:11.967Z,99511.13
2024-04-18T13:09:24.872Z,99514.25
2024-04-18T13:12:35.164Z,99517.84
2024-04-18T13:19:01.026Z,99520.81
2024-04-18T13:22:12.733Z,99524.38
2024-04-18T13:25:15.572Z,99530.03
2024-04-18T13:28:18.232Z,99519.03
2024-04-18T13:31:40.927Z,99532.53
2024-04-18T13:34:55.970Z,99526.31
2024-04-18T13:38:00.506Z,99523.22
2024-04-18T13:41:23.138Z,99523.69
2024-04-18T13:44:25.742Z,99529.03
2024-04-18T13:47:28.813Z,99526.19
2024-04-18T13:50:31.656Z,99530.63
2024-04-18T13:53:34.406Z,99534.16
2024-04-18T13:56:57.194Z,99532.72
2024-04-18T14:00:16.174Z,99531.78
2024-04-18T14:03:44.536Z,99539.69
2024-04-18T14:06:47.330Z,99529.25
2024-04-18T14:09:50.119Z,99539.81
2024-04-18T14:13:12.918Z,99536.84
2024-04-18T14:16:43.859Z,99534.72
2024-04-18T14:20:07.246Z,99543.19
2024-04-18T14:23:24.491Z,99538.19
2024-04-18T14:26:27.243Z,99546.31
2024-04-18T14:29:30.177Z,99547.72
2024-04-18T14:32:32.911Z,99546.31
2024-04-18T14:35:38.238Z,99550.53
2024-04-18T14:38:40.823Z,99544.66
2024-04-18T14:41:43.435Z,99548.03
2024-04-18T14:44:46.687Z,99551.28
2024-04-18T14:47:49.479Z,99557.34
2024-04-18T14:51:12.579Z,99566.75
2024-04-18T14:54:21.557Z,99559.97
2024-04-18T14:57:24.353Z,99560.66
2024-04-18T15:00:50.957Z,99558.53
2024-04-18T15:03:54.515Z,99567.38
2024-04-18T15:06:57.309Z,99567.47
2024-04-18T15:10:13.653Z,99572.69
2024-04-18T15:13:32.490Z,99586.16
2024-04-18T15:16:55.072Z,99586.41
2024-04-18T15:19:57.943Z,99578.06
2024-04-18T15:23:13.531Z,99587.56
2024-04-18T15:26:17.721Z,99589.72
2024-04-18T15:29:21.410Z,99594.44
2024-04-18T15:32:43.004Z,99586.19
2024-04-18T15:35:58.119Z,99588.50
2024-04-18T15:39:00.810Z,99590.72
2024-04-18T15:42:19.551Z,99595.38
2024-04-18T15:45:25.135Z,99602.50
2024-04-18T15:48:28.131Z,99606.53
2024-04-18T15:51:30.962Z,99604.13
2024-04-18T15:54:42.402Z,99613.44
2024-04-18T15:57:45.140Z,99609.88
2024-04-18T16:00:47.785Z,99608.47
2024-04-18T16:04:09.126Z,99613.28
2024-04-18T16:07:30.458Z,99621.97
2024-04-18T16:10:53.192Z,99625.69
2024-04-18T16:14:01.978Z,99621.31
2024-04-18T16:17:06.275Z,99615.06
2024-04-18T16:20:14.966Z,99619.00
2024-04-18T16:23:17.590Z,99625.75
2024-04-18T16:26:20.403Z,99629.38
2024-04-18T16:29:23.967Z,99637.38
2024-04-18T16:32:28.152Z,99642.28
2024-04-18T16:35:30.967Z,99637.44
2024-04-18T16:38:49.620Z,99650.44
2024-04-18T16:41:59.592Z,99649.38
2024-04-18T16:45:02.544Z,99653.88
2024-04-18T16:48:05.710Z,99653.53
2024-04-18T16:51:08.503Z,99656.50
2024-04-18T16:54:29.585Z,99668.63
2024-04-18T16:57:38.178Z,99666.09
2024-04-18T17:01:00.419Z,99674.81
2024-04-18T17:04:03.484Z,99678.69
2024-04-18T17:07:07.063Z,99681.47
2024-04-18T17:10:28.617Z,99689.56
2024-04-18T17:13:51.444Z,99690.13
2024-04-18T17:16:55.307Z,99699.00
2024-04-18T17:19:58.017Z,99696.56
2024-04-18T17:23:00.710Z,99705.53
2024-04-18T17:26:03.429Z,99696.66
2024-04-18T17:29:06.202Z,99710.34
2024-04-18T17:32:14.695Z,99717.56
2024-04-18T17:35:17.695Z,99717.63
2024-04-18T17:38:20.882Z,99718.28
2024-04-18T17:41:33.294Z,99717.84
2024-04-18T17:44:54.583Z,99739.63
2024-04-18T17:48:03.470Z,99748.53
2024-04-18T17:51:06.359Z,99746.50
2024-04-18T17:54:09.317Z,99747.34
2024-04-18T17:57:12.047Z,99746.78
2024-04-18T18:00:15.130Z,99757.63
2024-04-18T18:03:18.270Z,99760.91
2024-04-18T18:06:21.329Z,99761.75
2024-04-18T18:09:24.745Z,99768.72
2024-04-18T18:12:27.434Z,99773.44
2024-04-18T18:15:30.114Z,99780.44
2024-04-18T18:18:34.805Z,99789.13
2024-04-18T18:21:39.124Z,99799.00
2024-04-18T18:24:42.019Z,99794.00
2024-04-18T18:27:44.756Z,99797.28
2024-04-18T18:31:07.619Z,99802.31
2024-04-18T18:34:14.139Z,99808.63
2024-04-18T18:37:18.981Z,99814.41
2024-04-18T18:40:41.693Z,99816.44
2024-04-18T18:43:58.739Z,99822.63
2024-04-18T18:47:01.379Z,99822.53
2024-04-18T18:50:23.388Z,99818.44
2024-04-18T18:53:26.301Z,99823.50
2024-04-18T18:56:29.134Z,99825.34
2024-04-18T18:59:50.440Z,99829.72
2024-04-18T19:02:53.095Z,99833.16
2024-04-18T19:06:27.294Z,99842.91
2024-04-18T19:09:32.448Z,99844.16
2024-04-18T19:12:35.169Z,99847.63
2024-04-18T19:15:37.958Z,99851.06
2024-04-18T19:18:42.752Z,99861.69
2024-04-18T19:21:46.006Z,99860.44
2024-04-18T19:24:48.657Z,99856.81
2024-04-18T19:27:51.322Z,99854.03
2024-04-18T19:30:55.723Z,99856.84
2024-04-18T19:33:59.452Z,99860.09
2024-04-18T19:37:05.481Z,99872.66
2024-04-18T19:40:09.399Z,99863.25
2024-04-18T19:43:12.808Z,99875.44
2024-04-18T19:46:15.610Z,99876.09
2024-04-18T19:49:42.345Z,99876.84
2024-04-18T19:52:46.953Z,99876.38
2024-04-18T19:55:50.945Z,99871.38
2024-04-18T19:58:53.562Z,99880.41
2024-04-18T20:01:56.327Z,99881.97
2024-04-18T20:04:59.261Z,99883.22
2024-04-18T20:08:01.958Z,99883.97
2024-04-18T20:11:04.662Z,99889.47
2024-04-18T20:14:07.417Z,99882.75
2024-04-18T20:17:13.905Z,99888.06
2024-04-18T20:20:18.161Z,99892.44
2024-04-18T20:23:21.458Z,99889.78
2024-04-18T20:26:24.694Z,99899.41
2024-04-18T20:29:48.414Z,99899.88
2024-04-18T20:32:58.116Z,99891.66
2024-04-18T20:36:00.820Z,99901.44
2024-04-18T20:39:03.950Z,99896.31
2024-04-18T20:42:08.101Z,99895.16
2024-04-18T20:45:11.052Z,99894.06
2024-04-18T20:48:13.978Z,99896.03
2024-04-18T20:51:18.978Z,99906.19
2024-04-18T20:54:21.755Z,99892.59
2024-04-18T20:57:27.362Z,99912.03
2024-04-18T21:00:30.669Z,99918.16
2024-04-18T21:03:34.027Z,99914.13
2024-04-18T21:06:36.944Z,99914.97
2024-04-18T21:09:39.682Z,99929.91
2024-04-18T21:12:43.078Z,99930.38
2024-04-18T21:15:45.973Z,99927.59
2024-04-18T21:18:48.757Z,99922.25
2024-04-18T21:21:51.766Z,99935.38
2024-04-18T21:24:54.588Z,99924.63
2024-04-18T21:27:57.562Z,99923.81
2024-04-18T21:31:00.447Z,99923.22
2024-04-18T21:34:05.704Z,99924.06
2024-04-18T21:37:08.545Z,99923.84
2024-04-18T21:40:11.639Z,99922.13
2024-04-18T21:43:17.039Z,99928.19
2024-04-18T21:46:19.826Z,99930.84
2024-04-18T21:49:22.559Z,99927.09
2024-04-18T21:52:25.330Z,99938.66
2024-04-18T21:55:28.488Z,99949.78
2024-04-18T21:58:31.160Z,99959.72
2024-04-18T22:01:33.871Z,99960.59
2024-04-18T22:04:36.541Z,99960.50
2024-04-18T22:07:42.488Z,99976.47
2024-04-18T22:10:45.293Z,99987.56
2024-04-18T22:13:47.945Z,99999.44
2024-04-18T22:17:06.001Z,99988.94
2024-04-18T22:20:09.176Z,99998.84
2024-04-18T22:23:12.099Z,99991.94
2024-04-18T22:26:14.699Z,99998.69
2024-04-18T22:29:17.358Z,99994.50
2024-04-18T22:32:20.066Z,99988.66
2024-04-18T22:35:23.445Z,99979.53
2024-04-18T22:38:26.030Z,99972.72
2024-04-18T22:41:28.787Z,99973.03
2024-04-18T22:44:31.460Z,99988.91
2024-04-18T22:47:34.260Z,100001.91
2024-04-18T22:50:37.204Z,100008.91
2024-04-18T22:53:40.050Z,99998.81
2024-04-18T22:56:42.644Z,99995.50
2024-04-18T22:59:47.193Z,99993.22
2024-04-18T23:02:49.835Z,99999.63
2024-04-18T23:06:11.542Z,100004.19
2024-04-18T23:09:17.238Z,100000.28
2024-04-18T23:12:19.992Z,99983.72
2024-04-18T23:15:22.703Z,99992.38
2024-04-18T23:18:25.564Z,99994.09
2024-04-18T23:21:28.348Z,99990.06
2024-04-18T23:24:31.195Z,99996.81
2024-04-18T23:27:33.926Z,99989.06
2024-04-18T23:30:37.931Z,99993.91
2024-04-18T23:33:40.635Z,99992.13
2024-04-18T23:36:43.427Z,99993.97
2024-04-18T23:39:46.243Z,100002.19
2024-04-18T23:42:48.982Z,99989.34
2024-04-18T23:45:51.785Z,99999.31
2024-04-18T23:48:54.667Z,100000.59
2024-04-18T23:51:57.494Z,99993.88
2024-04-18T23:55:00.128Z,100002.97
2024-04-18T23:58:02.820Z,100008.09
